createdAt,value
2019-03-31T00:00:18.030Z,100455.86
2019-03-31T00:03:16.217Z,100453.31
2019-03-31T00:06:13.984Z,100456.63
2019-03-31T00:09:11.361Z,100451.50
2019-03-31T00:12:08.255Z,100443.21
2019-03-31T00:15:07.442Z,100445.59
2019-03-31T00:18:04.881Z,100451.81
2019-03-31T00:21:02.008Z,100452.14
2019-03-31T00:23:59.122Z,100450.91
2019-03-31T00:26:56.745Z,100456.70
2019-03-31T00:29:54.432Z,100453.77
2019-03-31T00:32:51.902Z,100454.77
2019-03-31T00:35:49.475Z,100446.41
2019-03-31T00:38:46.191Z,100453.02
2019-03-31T00:41:43.085Z,100452.62
2019-03-31T00:44:39.899Z,100457.15
2019-03-31T00:47:37.363Z,100455.87
2019-03-31T00:50:34.380Z,100458.00
2019-03-31T00:53:31.306Z,100455.03
2019-03-31T00:56:29.027Z,100455.20
2019-03-31T00:59:26.365Z,100460.95
2019-03-31T01:02:27.094Z,100460.64
2019-03-31T01:05:23.725Z,100448.52
2019-03-31T01:08:20.652Z,100456.24
2019-03-31T01:11:28.005Z,100463.07
2019-03-31T01:14:28.119Z,100464.63
2019-03-31T01:17:26.757Z,100456.59
2019-03-31T01:20:25.600Z,100454.09
2019-03-31T01:23:22.494Z,100455.91
2019-03-31T01:26:21.950Z,100459.45
2019-03-31T01:29:19.874Z,100462.95
2019-03-31T01:32:17.577Z,100463.95
2019-03-31T01:35:15.220Z,100458.23
2019-03-31T01:38:12.747Z,100461.95
2019-03-31T01:41:10.871Z,100462.62
2019-03-31T01:44:08.402Z,100461.22
2019-03-31T01:47:06.728Z,100464.59
2019-03-31T01:50:06.470Z,100460.33
2019-03-31T01:53:03.328Z,100464.37
2019-03-31T01:56:02.920Z,100459.77
2019-03-31T01:59:00.834Z,100455.95
2019-03-31T02:02:04.587Z,100462.34
2019-03-31T02:04:57.264Z,100464.33
2019-03-31T02:07:56.034Z,100465.71
2019-03-31T02:10:53.514Z,100471.30
2019-03-31T02:13:51.184Z,100467.39
2019-03-31T02:16:48.800Z,100466.64
2019-03-31T02:19:46.244Z,100467.59
2019-03-31T02:22:42.849Z,100468.56
2019-03-31T02:25:40.402Z,100462.75
2019-03-31T02:28:37.229Z,100472.55
2019-03-31T02:31:34.919Z,100475.59
2019-03-31T02:34:32.327Z,100468.73
2019-03-31T02:37:28.623Z,100476.53
2019-03-31T02:40:25.307Z,100469.09
2019-03-31T02:43:22.880Z,100475.39
2019-03-31T02:46:19.932Z,100469.84
2019-03-31T02:49:17.005Z,100472.31
2019-03-31T02:52:14.539Z,100466.59
2019-03-31T02:55:11.891Z,100465.33
2019-03-31T02:58:10.319Z,100466.92
2019-03-31T03:01:07.775Z,100466.44
2019-03-31T03:04:08.105Z,100466.27
2019-03-31T03:07:07.263Z,100471.80
2019-03-31T03:10:06.219Z,100466.78
2019-03-31T03:13:05.215Z,100471.65
2019-03-31T03:16:18.073Z,100466.30
2019-03-31T03:19:15.627Z,100476.96
2019-03-31T03:22:13.312Z,100476.69
2019-03-31T03:25:10.030Z,100473.03
2019-03-31T03:28:07.926Z,100473.75
2019-03-31T03:31:04.823Z,100477.89
2019-03-31T03:34:02.182Z,100484.72
2019-03-31T03:36:58.785Z,100481.44
2019-03-31T03:39:56.371Z,100490.73
2019-03-31T03:42:53.073Z,100481.94
2019-03-31T03:45:50.477Z,100483.27
2019-03-31T03:48:48.186Z,100488.21
2019-03-31T03:51:45.636Z,100485.58
2019-03-31T03:54:42.683Z,100486.38
2019-03-31T03:57:39.767Z,100489.27
2019-03-31T04:00:37.521Z,100494.33
2019-03-31T04:03:36.103Z,100495.61
2019-03-31T04:06:32.799Z,100498.63
2019-03-31T04:09:29.525Z,100499.30
2019-03-31T04:12:26.289Z,100506.73
2019-03-31T04:15:25.927Z,100503.24
2019-03-31T04:18:23.609Z,100501.50
2019-03-31T04:21:20.355Z,100501.95
2019-03-31T04:24:17.436Z,100501.23
2019-03-31T04:27:18.667Z,100503.03
2019-03-31T04:30:12.640Z,100506.62
2019-03-31T04:33:09.394Z,100523.75
2019-03-31T04:36:06.549Z,100520.01
2019-03-31T04:39:05.728Z,100516.82
2019-03-31T04:42:02.685Z,100515.17
2019-03-31T04:45:00.395Z,100523.43
2019-03-31T04:47:59.257Z,100517.29
2019-03-31T04:50:56.932Z,100519.03
2019-03-31T04:53:54.563Z,100523.04
2019-03-31T04:56:51.816Z,100519.38
2019-03-31T04:59:49.109Z,100531.31
2019-03-31T05:02:45.946Z,100540.58
2019-03-31T05:05:43.258Z,100545.11
2019-03-31T05:08:41.501Z,100550.32
2019-03-31T05:11:40.101Z,100552.43
2019-03-31T05:14:37.685Z,100560.00
2019-03-31T05:17:35.927Z,100561.67
2019-03-31T05:20:33.706Z,100563.13
2019-03-31T05:23:30.619Z,100570.64
2019-03-31T05:26:28.398Z,100569.86
2019-03-31T05:29:24.849Z,100569.80
2019-03-31T05:32:21.804Z,100564.89
2019-03-31T05:35:21.592Z,100573.22
2019-03-31T05:38:19.278Z,100579.66
2019-03-31T05:41:19.032Z,100576.67
2019-03-31T05:44:15.737Z,100580.02
2019-03-31T05:47:13.341Z,100583.38
2019-03-31T05:50:12.038Z,100582.38
2019-03-31T05:53:09.057Z,100584.88
2019-03-31T05:56:06.775Z,100589.89
2019-03-31T05:59:04.041Z,100582.75
2019-03-31T06:02:01.525Z,100584.56
2019-03-31T06:04:58.185Z,100588.61
2019-03-31T06:07:55.739Z,100592.61
2019-03-31T06:10:52.092Z,100598.48
2019-03-31T06:13:49.639Z,100596.75
2019-03-31T06:16:47.195Z,100593.41
2019-03-31T06:19:43.892Z,100596.84
2019-03-31T06:22:40.482Z,100599.59
2019-03-31T06:25:38.306Z,100589.30
2019-03-31T06:28:35.695Z,100586.03
2019-03-31T06:31:33.355Z,100596.41
2019-03-31T06:34:30.435Z,100597.91
2019-03-31T06:37:28.506Z,100595.56
2019-03-31T06:40:25.111Z,100596.20
2019-03-31T06:43:22.029Z,100595.06
2019-03-31T06:46:18.470Z,100596.15
2019-03-31T06:49:16.405Z,100603.03
2019-03-31T06:52:14.075Z,100604.25
2019-03-31T06:55:11.148Z,100614.15
2019-03-31T06:58:08.257Z,100609.63
2019-03-31T07:01:04.777Z,100619.18
2019-03-31T07:04:01.998Z,100616.77
2019-03-31T07:07:00.719Z,100618.49
2019-03-31T07:09:56.948Z,100611.37
2019-03-31T07:12:53.986Z,100613.37
2019-03-31T07:15:51.127Z,100613.03
2019-03-31T07:18:50.545Z,100619.58
2019-03-31T07:21:47.672Z,100627.02
2019-03-31T07:24:43.822Z,100634.06
2019-03-31T07:27:40.194Z,100643.89
2019-03-31T07:30:36.649Z,100646.27
2019-03-31T07:33:34.074Z,100641.74
2019-03-31T07:36:31.332Z,100651.83
2019-03-31T07:39:29.510Z,100652.11
2019-03-31T07:42:28.512Z,100656.53
2019-03-31T07:45:25.720Z,100649.65
2019-03-31T07:48:27.426Z,100656.98
2019-03-31T07:51:24.681Z,100648.01
2019-03-31T07:54:22.266Z,100652.61
2019-03-31T07:57:18.826Z,100644.78
2019-03-31T08:00:20.088Z,100649.58
2019-03-31T08:03:16.285Z,100650.55
2019-03-31T08:06:13.628Z,100651.17
2019-03-31T08:09:10.077Z,100649.77
2019-03-31T08:12:07.155Z,100655.13
2019-03-31T08:15:04.747Z,100658.73
2019-03-31T08:18:01.958Z,100659.52
2019-03-31T08:20:58.774Z,100657.17
2019-03-31T08:23:57.391Z,100669.14
2019-03-31T08:26:56.911Z,100664.77
2019-03-31T08:30:00.383Z,100671.86
2019-03-31T08:32:51.540Z,100667.63
2019-03-31T08:35:49.077Z,100670.05
2019-03-31T08:38:45.768Z,100684.81
2019-03-31T08:41:42.934Z,100677.37
2019-03-31T08:44:39.983Z,100673.79
2019-03-31T08:47:37.324Z,100682.77
2019-03-31T08:50:34.946Z,100696.16
2019-03-31T08:53:32.802Z,100688.69
2019-03-31T08:56:29.502Z,100696.91
2019-03-31T08:59:26.057Z,100695.77
2019-03-31T09:02:27.457Z,100707.14
2019-03-31T09:05:24.646Z,100713.66
2019-03-31T09:08:22.202Z,100711.39
2019-03-31T09:11:21.475Z,100712.88
2019-03-31T09:14:19.147Z,100696.38
2019-03-31T09:17:15.296Z,100708.40
2019-03-31T09:20:13.984Z,100711.87
2019-03-31T09:23:11.292Z,100718.93
2019-03-31T09:26:07.692Z,100730.77
2019-03-31T09:29:03.742Z,100724.62
2019-03-31T09:32:00.268Z,100729.16
2019-03-31T09:34:57.981Z,100727.34
2019-03-31T09:37:54.668Z,100738.17
2019-03-31T09:40:53.057Z,100741.31
2019-03-31T09:43:50.377Z,100741.66
2019-03-31T09:46:48.184Z,100737.50
2019-03-31T09:49:46.889Z,100740.53
2019-03-31T09:52:43.402Z,100748.82
2019-03-31T09:55:39.951Z,100744.28
2019-03-31T09:58:36.316Z,100749.65
2019-03-31T10:01:33.064Z,100747.53
2019-03-31T10:04:30.464Z,100752.25
2019-03-31T10:07:27.825Z,100747.98
2019-03-31T10:10:34.780Z,100755.02
2019-03-31T10:13:32.056Z,100756.08
2019-03-31T10:16:28.594Z,100753.41
2019-03-31T10:19:26.264Z,100754.68
2019-03-31T10:22:23.362Z,100751.75
2019-03-31T10:25:21.379Z,100751.28
2019-03-31T10:28:18.057Z,100750.22
2019-03-31T10:31:17.631Z,100753.44
2019-03-31T10:34:15.030Z,100753.62
2019-03-31T10:37:11.748Z,100756.46
2019-03-31T10:40:09.803Z,100751.63
2019-03-31T10:43:07.156Z,100744.61
2019-03-31T10:46:04.387Z,100757.66
2019-03-31T10:49:01.162Z,100746.68
2019-03-31T10:51:58.768Z,100745.15
2019-03-31T10:54:56.431Z,100747.81
2019-03-31T10:57:55.874Z,100745.75
2019-03-31T11:00:53.111Z,100745.35
2019-03-31T11:03:50.861Z,100747.39
2019-03-31T11:06:58.415Z,100750.02
2019-03-31T11:09:45.763Z,100756.13
2019-03-31T11:12:44.066Z,100765.34
2019-03-31T11:15:40.875Z,100751.45
2019-03-31T11:18:37.896Z,100757.27
2019-03-31T11:21:50.020Z,100752.47
2019-03-31T11:24:46.349Z,100757.28
2019-03-31T11:27:47.312Z,100754.08
2019-03-31T11:30:45.836Z,100755.86
2019-03-31T11:33:43.465Z,100756.91
2019-03-31T11:36:41.453Z,100759.75
2019-03-31T11:39:39.917Z,100765.34
2019-03-31T11:42:36.462Z,100771.83
2019-03-31T11:45:35.339Z,100775.84
2019-03-31T11:48:34.724Z,100776.98
2019-03-31T11:51:31.037Z,100774.83
2019-03-31T11:54:28.545Z,100775.19
2019-03-31T11:57:26.014Z,100781.89
2019-03-31T12:00:23.386Z,100782.12
2019-03-31T12:03:22.134Z,100774.32
2019-03-31T12:06:19.124Z,100776.53
2019-03-31T12:09:16.145Z,100781.00
2019-03-31T12:12:13.414Z,100774.44
2019-03-31T12:15:11.397Z,100772.22
2019-03-31T12:18:08.890Z,100769.03
2019-03-31T12:21:05.584Z,100773.53
2019-03-31T12:24:02.778Z,100777.41
2019-03-31T12:26:59.707Z,100785.01
2019-03-31T12:29:56.776Z,100777.03
2019-03-31T12:32:53.069Z,100777.14
2019-03-31T12:35:50.851Z,100770.61
2019-03-31T12:38:48.136Z,100768.62
2019-03-31T12:41:45.408Z,100765.43
2019-03-31T12:44:42.884Z,100770.88
2019-03-31T12:47:39.357Z,100770.30
2019-03-31T12:50:35.693Z,100771.70
2019-03-31T12:53:38.128Z,100768.67
2019-03-31T12:56:35.647Z,100769.37
2019-03-31T12:59:32.275Z,100775.10
2019-03-31T13:02:28.508Z,100772.89
2019-03-31T13:05:25.134Z,100766.70
2019-03-31T13:08:22.858Z,100768.84
2019-03-31T13:11:23.764Z,100765.70
2019-03-31T13:14:21.958Z,100755.14
2019-03-31T13:17:18.726Z,100763.00
2019-03-31T13:20:17.758Z,100760.41
2019-03-31T13:23:15.243Z,100763.67
2019-03-31T13:26:13.448Z,100762.31
2019-03-31T13:29:10.415Z,100769.21
2019-03-31T13:32:07.734Z,100769.42
2019-03-31T13:35:06.712Z,100765.63
2019-03-31T13:38:10.921Z,100758.25
2019-03-31T13:41:01.453Z,100766.78
2019-03-31T13:43:59.991Z,100766.54
2019-03-31T13:46:56.633Z,100767.16
2019-03-31T13:49:53.538Z,100770.06
2019-03-31T13:52:51.777Z,100770.22
2019-03-31T13:55:48.656Z,100767.11
2019-03-31T13:58:52.569Z,100757.73
2019-03-31T14:01:45.323Z,100767.25
2019-03-31T14:04:51.349Z,100776.70
2019-03-31T14:07:42.720Z,100773.08
2019-03-31T14:10:40.324Z,100774.11
2019-03-31T14:13:36.944Z,100776.19
2019-03-31T14:16:33.294Z,100775.11
2019-03-31T14:19:30.139Z,100768.50
2019-03-31T14:22:30.108Z,100775.24
2019-03-31T14:25:27.314Z,100767.69
2019-03-31T14:28:24.694Z,100776.92
2019-03-31T14:31:22.091Z,100773.52
2019-03-31T14:34:18.624Z,100774.34
2019-03-31T14:37:16.442Z,100775.72
2019-03-31T14:40:14.917Z,100773.89
2019-03-31T14:43:12.394Z,100771.84
2019-03-31T14:46:09.857Z,100772.08
2019-03-31T14:49:06.582Z,100776.88
2019-03-31T14:52:04.429Z,100777.02
2019-03-31T14:55:02.327Z,100776.22
2019-03-31T14:57:59.086Z,100777.93
2019-03-31T15:00:56.171Z,100781.95
2019-03-31T15:03:54.868Z,100783.34
2019-03-31T15:06:52.317Z,100783.00
2019-03-31T15:09:49.657Z,100783.82
2019-03-31T15:12:46.279Z,100780.59
2019-03-31T15:15:43.312Z,100777.61
2019-03-31T15:18:40.304Z,100780.09
2019-03-31T15:21:44.142Z,100780.88
2019-03-31T15:24:35.295Z,100786.81
2019-03-31T15:27:31.910Z,100783.33
2019-03-31T15:30:29.247Z,100781.88
2019-03-31T15:33:26.903Z,100780.73
2019-03-31T15:36:23.756Z,100778.08
2019-03-31T15:39:21.078Z,100785.59
2019-03-31T15:42:17.712Z,100787.55
2019-03-31T15:45:15.560Z,100788.13
2019-03-31T15:48:14.451Z,100785.28
2019-03-31T15:51:12.190Z,100789.13
2019-03-31T15:54:08.863Z,100794.81
2019-03-31T15:57:05.322Z,100795.61
2019-03-31T16:00:02.298Z,100793.42
2019-03-31T16:02:59.760Z,100797.28
2019-03-31T16:05:56.541Z,100793.52
2019-03-31T16:08:53.896Z,100797.30
2019-03-31T16:11:54.012Z,100801.44
2019-03-31T16:14:47.614Z,100804.78
2019-03-31T16:17:44.407Z,100805.00
2019-03-31T16:20:43.222Z,100804.30
2019-03-31T16:23:38.812Z,100804.70
2019-03-31T16:26:35.565Z,100803.80
2019-03-31T16:29:31.934Z,100807.12
2019-03-31T16:32:29.665Z,100802.90
2019-03-31T16:35:28.885Z,100805.52
2019-03-31T16:38:26.555Z,100805.20
2019-03-31T16:41:23.297Z,100809.38
2019-03-31T16:44:20.227Z,100809.63
2019-03-31T16:47:17.210Z,100810.62
2019-03-31T16:50:14.566Z,100807.88
2019-03-31T16:53:10.976Z,100810.56
2019-03-31T16:56:07.891Z,100810.14
2019-03-31T16:59:04.554Z,100815.20
2019-03-31T17:02:01.226Z,100820.31
2019-03-31T17:04:57.307Z,100818.77
2019-03-31T17:07:55.190Z,100819.77
2019-03-31T17:10:52.199Z,100816.92
2019-03-31T17:13:49.443Z,100823.98
2019-03-31T17:16:45.571Z,100821.23
2019-03-31T17:19:42.712Z,100826.00
2019-03-31T17:22:38.656Z,100827.41
2019-03-31T17:25:34.512Z,100833.75
2019-03-31T17:28:31.608Z,100832.67
2019-03-31T17:31:29.410Z,100837.45
2019-03-31T17:34:25.923Z,100841.40
2019-03-31T17:37:21.927Z,100843.52
2019-03-31T17:40:18.676Z,100849.94
2019-03-31T17:43:15.028Z,100852.30
2019-03-31T17:46:15.334Z,100855.11
2019-03-31T17:49:11.500Z,100856.21
2019-03-31T17:52:07.011Z,100858.66
2019-03-31T17:55:04.592Z,100860.78
2019-03-31T17:58:01.293Z,100862.92
2019-03-31T18:00:57.517Z,100872.51
2019-03-31T18:03:53.265Z,100871.67
2019-03-31T18:06:48.755Z,100880.15
2019-03-31T18:09:46.110Z,100884.36
2019-03-31T18:12:42.115Z,100882.88
2019-03-31T18:15:38.230Z,100883.55
2019-03-31T18:18:34.383Z,100889.75
2019-03-31T18:21:30.922Z,100892.83
2019-03-31T18:24:27.734Z,100899.03
2019-03-31T18:27:24.711Z,100899.29
2019-03-31T18:30:21.690Z,100904.36
2019-03-31T18:33:18.167Z,100904.67
2019-03-31T18:36:16.345Z,100908.45
2019-03-31T18:39:13.110Z,100910.72
2019-03-31T18:42:09.296Z,100912.03
2019-03-31T18:45:06.620Z,100909.91
2019-03-31T18:48:03.188Z,100921.90
2019-03-31T18:50:59.841Z,100920.52
2019-03-31T18:54:21.753Z,100930.81
2019-03-31T18:57:28.145Z,100925.47
2019-03-31T19:00:44.231Z,100930.58
2019-03-31T19:03:52.148Z,100933.88
2019-03-31T19:06:55.824Z,100932.36
2019-03-31T19:10:00.409Z,100933.52
2019-03-31T19:13:11.110Z,100930.86
2019-03-31T19:16:32.648Z,100937.97
2019-03-31T19:19:36.247Z,100939.75
2019-03-31T19:22:51.689Z,100942.48
2019-03-31T19:25:58.876Z,100939.48
2019-03-31T19:29:04.714Z,100941.72
2019-03-31T19:32:16.110Z,100946.13
2019-03-31T19:35:39.038Z,100947.75
2019-03-31T19:38:46.338Z,100952.59
2019-03-31T19:42:12.020Z,100948.27
2019-03-31T19:45:35.007Z,100951.17
2019-03-31T19:48:41.843Z,100955.58
2019-03-31T19:51:56.214Z,100953.98
2019-03-31T19:55:11.882Z,100955.42
2019-03-31T19:58:18.756Z,100959.06
2019-03-31T20:01:34.337Z,100955.24
2019-03-31T20:04:53.264Z,100957.20
2019-03-31T20:08:11.389Z,100956.61
2019-03-31T20:11:12.931Z,100956.54
2019-03-31T20:14:30.463Z,100960.40
2019-03-31T20:17:33.401Z,100964.34
2019-03-31T20:20:41.147Z,100968.96
2019-03-31T20:24:05.103Z,100965.99
2019-03-31T20:27:10.999Z,100967.21
2019-03-31T20:30:33.210Z,100969.14
2019-03-31T20:33:52.479Z,100968.05
2019-03-31T20:37:06.626Z,100962.80
2019-03-31T20:40:25.186Z,100969.94
2019-03-31T20:43:37.087Z,100972.71
2019-03-31T20:46:33.920Z,100983.70
2019-03-31T20:49:30.767Z,100977.13
2019-03-31T20:52:26.716Z,100974.41
2019-03-31T20:55:23.846Z,100982.17
2019-03-31T20:58:20.407Z,100975.41
2019-03-31T21:01:16.530Z,100982.63
2019-03-31T21:04:13.138Z,100983.17
2019-03-31T21:07:11.468Z,100988.12
2019-03-31T21:10:08.373Z,100997.81
2019-03-31T21:13:04.314Z,100996.61
2019-03-31T21:16:00.183Z,101005.54
2019-03-31T21:18:56.921Z,100996.61
2019-03-31T21:21:53.766Z,101002.25
2019-03-31T21:24:50.315Z,101005.08
2019-03-31T21:27:46.619Z,101003.90
2019-03-31T21:30:45.117Z,101014.36
2019-03-31T21:33:42.166Z,101016.23
2019-03-31T21:36:38.939Z,101020.91
2019-03-31T21:39:34.970Z,101026.70
2019-03-31T21:42:30.826Z,101022.57
2019-03-31T21:45:27.916Z,101026.87
2019-03-31T21:48:24.565Z,101022.09
2019-03-31T21:51:21.161Z,101027.17
2019-03-31T21:54:17.890Z,101034.53
2019-03-31T21:57:16.299Z,101041.09
2019-03-31T22:00:12.886Z,101041.52
2019-03-31T22:03:10.268Z,101042.30
2019-03-31T22:06:07.007Z,101048.81
2019-03-31T22:09:08.155Z,101042.91
2019-03-31T22:12:04.758Z,101049.14
2019-03-31T22:15:01.014Z,101046.39
2019-03-31T22:17:57.531Z,101050.53
2019-03-31T22:20:54.391Z,101049.43
2019-03-31T22:23:57.677Z,101051.72
2019-03-31T22:26:47.872Z,101058.84
2019-03-31T22:29:44.620Z,101054.03
2019-03-31T22:32:41.680Z,101060.28
2019-03-31T22:35:38.239Z,101052.77
2019-03-31T22:38:34.708Z,101054.06
2019-03-31T22:41:31.688Z,101059.86
2019-03-31T22:44:28.263Z,101057.54
2019-03-31T22:47:24.168Z,101063.91
2019-03-31T22:50:20.401Z,101060.61
2019-03-31T22:53:15.920Z,101063.48
2019-03-31T22:56:12.026Z,101060.91
2019-03-31T22:59:09.922Z,101061.09
2019-03-31T23:02:06.696Z,101055.50
2019-03-31T23:05:03.582Z,101062.31
2019-03-31T23:08:00.354Z,101056.77
2019-03-31T23:10:57.470Z,101068.89
2019-03-31T23:13:54.448Z,101066.40
2019-03-31T23:16:51.363Z,101068.50
2019-03-31T23:19:48.431Z,101069.30
2019-03-31T23:22:45.458Z,101069.14
2019-03-31T23:25:41.231Z,101067.47
2019-03-31T23:28:46.561Z,101072.02
2019-03-31T23:31:43.223Z,101076.45
2019-03-31T23:34:39.555Z,101074.97
2019-03-31T23:37:37.778Z,101077.34
2019-03-31T23:40:34.338Z,101077.27
2019-03-31T23:43:31.301Z,101070.80
2019-03-31T23:46:28.148Z,101077.13
2019-03-31T23:49:24.806Z,101070.75
2019-03-31T23:52:20.981Z,101072.05
2019-03-31T23:55:17.035Z,101066.12
2019-03-31T23:58:12.881Z,101072.76
